Time;durP1;ratioP1;P1;durP2;ratioP2;P2;SDS_P1;SDS_P2;PMS_P1;PMS_P2;Temp;Humidity;BMP_temperature;BMP_pressure;BME280_temperature;BME280_humidity;BME280_pressure;Samples;Min_cycle;Max_cycle;Signal;HPM_P1;HPM_P2
2021/12/03 00:01:07;;;;;;;5.90;2.67;;;18.90;99.90;;;;;;4195067;28;20860;-78
2021/12/03 00:03:11;;;;;;;5.80;2.55;;;18.90;99.90;;;;;;4194270;28;20219;-78
2021/12/03 00:05:13;;;;;;;4.15;2.65;;;18.80;99.90;;;;;;4194849;28;20699;-78
2021/12/03 00:07:16;;;;;;;5.30;2.80;;;18.80;99.90;;;;;;4194165;28;20211;-78
2021/12/03 00:09:19;;;;;;;4.72;2.70;;;18.80;99.90;;;;;;4194123;28;20219;-78
2021/12/03 00:11:22;;;;;;;4.13;2.50;;;18.90;99.90;;;;;;4193910;28;20249;-78
2021/12/03 00:13:25;;;;;;;4.57;2.60;;;18.80;99.90;;;;;;4194633;28;20223;-78
2021/12/03 00:15:28;;;;;;;3.03;2.40;;;18.80;99.90;;;;;;4194309;28;20656;-78
2021/12/03 00:17:30;;;;;;;3.83;2.58;;;18.80;99.90;;;;;;4193964;28;20273;-78
2021/12/03 00:19:33;;;;;;;7.05;2.95;;;18.80;99.90;;;;;;4193899;28;20260;-78
2021/12/03 00:21:37;;;;;;;4.88;2.70;;;18.80;99.90;;;;;;4193700;28;20218;-78
2021/12/03 00:23:40;;;;;;;4.88;2.97;;;18.80;99.90;;;;;;4194099;28;20227;-79
2021/12/03 00:25:44;;;;;;;5.95;2.40;;;18.80;99.90;;;;;;4193663;28;20239;-78
2021/12/03 00:27:47;;;;;;;4.25;2.63;;;18.70;99.90;;;;;;4194179;28;20227;-81
2021/12/03 00:29:50;;;;;;;4.72;2.72;;;18.70;99.90;;;;;;4194031;28;20277;-78
2021/12/03 00:31:53;;;;;;;4.47;2.95;;;18.80;99.90;;;;;;4193448;28;20269;-78
2021/12/03 00:33:55;;;;;;;3.67;2.58;;;18.80;99.90;;;;;;4195280;28;20211;-78
2021/12/03 00:35:59;;;;;;;4.45;3.00;;;18.80;99.90;;;;;;4194964;28;20656;-79
2021/12/03 00:38:02;;;;;;;2.97;2.45;;;18.70;99.90;;;;;;4194389;28;20725;-78
2021/12/03 00:40:05;;;;;;;4.15;2.90;;;18.70;99.90;;;;;;4194187;28;20216;-78
2021/12/03 00:42:14;;;;;;;3.83;2.60;;;18.70;99.90;;;;;;4192806;28;20643;-78
2021/12/03 00:44:18;;;;;;;4.40;2.58;;;18.70;99.90;;;;;;4193643;28;20304;-78
2021/12/03 00:46:23;;;;;;;5.20;2.58;;;18.70;99.90;;;;;;4194142;28;20211;-79
2021/12/03 00:48:25;;;;;;;4.22;2.38;;;18.70;99.90;;;;;;4194758;28;20215;-78
2021/12/03 00:50:29;;;;;;;4.43;2.88;;;18.60;99.90;;;;;;4194183;28;20284;-78
2021/12/03 00:52:31;;;;;;;3.97;2.45;;;18.60;99.90;;;;;;4193605;28;20725;-78
2021/12/03 00:54:33;;;;;;;4.20;2.70;;;18.60;99.90;;;;;;4193780;28;20227;-78
2021/12/03 00:56:36;;;;;;;4.78;2.70;;;18.70;99.90;;;;;;4193106;28;20210;-78
2021/12/03 00:58:40;;;;;;;4.45;2.60;;;18.60;99.90;;;;;;4192273;28;20211;-78
2021/12/03 01:00:42;;;;;;;5.57;2.70;;;18.60;99.90;;;;;;4193707;28;20218;-78
2021/12/03 01:02:45;;;;;;;4.28;2.70;;;18.60;99.90;;;;;;4193244;28;20220;-78
2021/12/03 01:04:48;;;;;;;4.65;2.88;;;18.60;99.90;;;;;;4193720;28;20227;-78
2021/12/03 01:06:50;;;;;;;4.97;2.63;;;18.60;99.90;;;;;;4192164;28;20944;-78
2021/12/03 01:08:53;;;;;;;4.65;2.35;;;18.60;99.90;;;;;;4193508;28;20265;-78
2021/12/03 01:10:55;;;;;;;4.20;2.72;;;18.60;99.90;;;;;;4193007;28;20215;-79
2021/12/03 01:12:58;;;;;;;4.75;3.13;;;18.60;99.90;;;;;;4192328;28;20552;-78
2021/12/03 01:15:02;;;;;;;5.28;3.03;;;18.60;99.90;;;;;;4192958;28;20269;-78
2021/12/03 01:17:05;;;;;;;3.83;2.53;;;18.50;99.90;;;;;;4192113;28;20707;-79
2021/12/03 01:19:07;;;;;;;4.15;2.65;;;18.60;99.90;;;;;;4192320;28;20227;-78
2021/12/03 01:21:10;;;;;;;6.90;2.80;;;18.50;99.90;;;;;;4193382;28;20218;-78
2021/12/03 01:23:13;;;;;;;6.28;2.78;;;18.50;99.90;;;;;;4191873;28;20272;-79
2021/12/03 01:25:18;;;;;;;5.72;2.58;;;18.60;99.90;;;;;;4192472;28;20251;-78
2021/12/03 01:27:20;;;;;;;5.32;2.80;;;18.50;99.90;;;;;;4193970;28;20244;-78
2021/12/03 01:29:22;;;;;;;4.63;2.65;;;18.50;99.90;;;;;;4193152;28;20215;-78
2021/12/03 01:31:26;;;;;;;5.38;2.78;;;18.50;99.90;;;;;;4191761;28;20683;-79
2021/12/03 01:33:28;;;;;;;3.97;2.50;;;18.50;99.90;;;;;;4191197;28;20219;-78
2021/12/03 01:35:30;;;;;;;5.38;2.97;;;18.50;99.90;;;;;;4193124;28;20276;-78
2021/12/03 01:37:33;;;;;;;5.50;2.70;;;18.50;99.90;;;;;;4192984;28;20273;-78
2021/12/03 01:39:35;;;;;;;4.85;2.65;;;18.50;99.90;;;;;;4192376;28;20227;-78
2021/12/03 01:41:38;;;;;;;4.90;2.63;;;18.60;99.90;;;;;;4192002;28;20246;-78
2021/12/03 01:43:42;;;;;;;6.18;3.00;;;18.50;99.80;;;;;;4192228;28;20667;-78
2021/12/03 01:45:45;;;;;;;3.92;2.53;;;18.50;99.90;;;;;;4192145;28;20643;-78
2021/12/03 01:47:50;;;;;;;5.05;3.03;;;18.50;99.90;;;;;;4192711;28;20228;-78
2021/12/03 01:49:52;;;;;;;4.55;2.80;;;18.50;99.90;;;;;;4191833;28;20215;-78
2021/12/03 01:51:55;;;;;;;6.15;2.60;;;18.50;99.80;;;;;;4192275;28;20227;-78
2021/12/03 01:53:57;;;;;;;5.53;3.03;;;18.50;99.80;;;;;;4191711;28;20292;-78
2021/12/03 01:56:03;;;;;;;6.78;2.72;;;18.50;99.90;;;;;;4192672;28;20277;-78
2021/12/03 01:58:06;;;;;;;6.38;3.08;;;18.50;99.70;;;;;;4192598;28;20215;-78
2021/12/03 02:00:18;;;;;;;4.50;2.60;;;18.50;99.70;;;;;;4192343;28;20223;-78
2021/12/03 02:02:21;;;;;;;5.38;3.05;;;18.50;99.70;;;;;;4189921;28;20264;-78
2021/12/03 02:04:25;;;;;;;5.55;2.90;;;18.50;99.70;;;;;;4192872;28;20621;-79
2021/12/03 02:06:29;;;;;;;4.03;2.80;;;18.40;99.70;;;;;;4192639;28;20235;-79
2021/12/03 02:08:31;;;;;;;4.97;2.80;;;18.40;99.70;;;;;;4192773;28;20230;-78
2021/12/03 02:10:34;;;;;;;5.32;2.75;;;18.40;99.70;;;;;;4193007;28;20256;-78
2021/12/03 02:12:36;;;;;;;6.05;2.50;;;18.40;99.70;;;;;;4193582;28;20226;-78
2021/12/03 02:14:39;;;;;;;4.90;2.60;;;18.40;99.80;;;;;;4193482;28;20541;-78
2021/12/03 02:16:45;;;;;;;7.35;3.00;;;18.40;99.80;;;;;;4193145;28;20269;-78
2021/12/03 02:18:48;;;;;;;6.32;2.83;;;18.40;99.80;;;;;;4191131;28;21674;-81
2021/12/03 02:20:54;;;;;;;5.10;2.80;;;18.40;99.80;;;;;;4193171;28;20215;-78
2021/12/03 02:22:56;;;;;;;4.95;2.67;;;18.40;99.80;;;;;;4192484;28;20215;-79
2021/12/03 02:24:59;;;;;;;5.80;2.80;;;18.40;99.90;;;;;;4192903;28;20215;-78
2021/12/03 02:27:01;;;;;;;5.30;2.80;;;18.30;99.80;;;;;;4192898;28;20293;-78
2021/12/03 02:29:04;;;;;;;4.90;2.65;;;18.40;99.80;;;;;;4192689;28;20215;-78
2021/12/03 02:31:07;;;;;;;4.65;2.75;;;18.30;99.80;;;;;;4193653;28;20258;-78
2021/12/03 02:33:09;;;;;;;6.25;2.70;;;18.30;99.60;;;;;;4193031;28;20211;-78
2021/12/03 02:35:11;;;;;;;5.32;2.72;;;18.30;99.80;;;;;;4195210;28;20236;-78
2021/12/03 02:37:15;;;;;;;6.57;3.00;;;18.30;99.80;;;;;;4196574;28;20214;-78
2021/12/03 02:39:17;;;;;;;5.10;2.92;;;18.30;99.80;;;;;;4196176;28;20276;-79
2021/12/03 02:41:20;;;;;;;5.90;2.67;;;18.30;99.90;;;;;;4196261;28;20219;-78
2021/12/03 02:43:24;;;;;;;4.57;2.80;;;18.30;99.80;;;;;;4196254;28;20729;-78
2021/12/03 02:45:26;;;;;;;4.97;2.45;;;18.20;99.70;;;;;;4196170;28;20709;-78
2021/12/03 02:47:28;;;;;;;6.68;3.10;;;18.20;99.80;;;;;;4195837;28;20280;-78
2021/12/03 02:49:31;;;;;;;5.57;2.60;;;18.20;99.70;;;;;;4195648;28;20253;-78
2021/12/03 02:51:33;;;;;;;4.35;2.60;;;18.20;99.70;;;;;;4195878;28;20239;-78
2021/12/03 02:53:37;;;;;;;5.10;2.60;;;18.30;99.80;;;;;;4195781;28;20215;-78
2021/12/03 02:55:40;;;;;;;6.25;3.10;;;18.30;99.70;;;;;;4194854;28;20211;-78
2021/12/03 02:57:42;;;;;;;6.47;2.70;;;18.30;99.60;;;;;;4194883;28;20224;-78
2021/12/03 02:59:45;;;;;;;5.95;2.90;;;18.20;99.60;;;;;;4195205;28;20219;-78
2021/12/03 03:01:47;;;;;;;5.93;2.72;;;18.20;99.70;;;;;;4197755;28;20215;-78
2021/12/03 03:03:49;;;;;;;5.07;2.35;;;18.30;99.60;;;;;;4196963;28;20619;-78
2021/12/03 03:05:56;;;;;;;5.60;3.03;;;18.20;99.60;;;;;;4197106;28;20288;-78
2021/12/03 03:07:58;;;;;;;5.18;2.80;;;18.20;99.60;;;;;;4197446;28;20215;-78
2021/12/03 03:10:03;;;;;;;6.15;2.90;;;18.20;99.50;;;;;;4197391;28;20219;-78
2021/12/03 03:12:06;;;;;;;7.13;3.15;;;18.30;99.50;;;;;;4197185;28;20215;-78
2021/12/03 03:14:08;;;;;;;6.97;3.28;;;18.20;99.60;;;;;;4196212;28;20905;-78
2021/12/03 03:16:15;;;;;;;8.13;2.97;;;18.20;99.60;;;;;;4194932;28;20208;-78
2021/12/03 03:18:21;;;;;;;5.65;2.90;;;18.20;99.50;;;;;;4189185;28;20613;-78
2021/12/03 03:20:23;;;;;;;4.63;2.70;;;18.20;99.50;;;;;;4194766;28;20215;-78
2021/12/03 03:22:26;;;;;;;4.78;2.50;;;18.20;99.60;;;;;;4197868;28;20199;-78
2021/12/03 03:24:29;;;;;;;6.40;2.97;;;18.20;99.60;;;;;;4197709;28;20627;-78
2021/12/03 03:26:33;;;;;;;6.60;2.90;;;18.20;99.60;;;;;;4194928;28;20760;-79
2021/12/03 03:28:36;;;;;;;6.97;3.00;;;18.20;99.40;;;;;;4197841;28;20219;-78
2021/12/03 03:30:40;;;;;;;7.47;2.97;;;18.20;99.40;;;;;;4197587;28;20227;-78
2021/12/03 03:32:43;;;;;;;4.80;2.53;;;18.20;99.40;;;;;;4197112;28;20219;-79
2021/12/03 03:34:45;;;;;;;6.78;3.33;;;18.10;99.30;;;;;;4197213;28;20229;-78
2021/12/03 03:36:48;;;;;;;6.32;3.00;;;18.20;99.40;;;;;;4197779;28;20210;-78
2021/12/03 03:38:50;;;;;;;6.13;2.80;;;18.20;99.30;;;;;;4197748;28;20215;-78
2021/12/03 03:40:53;;;;;;;7.25;2.63;;;18.20;99.40;;;;;;4196772;28;20272;-78
2021/12/03 03:42:58;;;;;;;8.43;3.08;;;18.10;99.30;;;;;;4196155;28;20297;-78
2021/12/03 03:45:00;;;;;;;8.23;3.40;;;18.20;99.30;;;;;;4197086;28;20660;-78
2021/12/03 03:47:04;;;;;;;6.60;3.17;;;18.10;99.40;;;;;;4193523;28;20695;-78
2021/12/03 03:49:07;;;;;;;7.90;3.20;;;18.10;99.30;;;;;;4196514;28;20207;-79
2021/12/03 03:51:09;;;;;;;8.18;3.03;;;18.20;99.40;;;;;;4197050;28;20238;-78
2021/12/03 03:53:11;;;;;;;5.60;2.83;;;18.10;99.30;;;;;;4197160;28;20619;-78
2021/12/03 03:55:15;;;;;;;5.78;3.03;;;18.10;99.30;;;;;;4197218;28;20215;-78
2021/12/03 03:57:17;;;;;;;6.82;2.90;;;18.10;99.50;;;;;;4196910;28;20220;-78
2021/12/03 03:59:22;;;;;;;6.70;3.30;;;18.10;99.30;;;;;;4196901;28;20207;-78
2021/12/03 04:01:24;;;;;;;6.65;3.05;;;18.10;99.30;;;;;;4197346;28;20222;-79
2021/12/03 04:03:30;;;;;;;7.90;3.33;;;18.10;99.30;;;;;;4197099;28;20701;-78
2021/12/03 04:05:32;;;;;;;7.80;3.03;;;18.10;99.20;;;;;;4196333;28;20219;-79
2021/12/03 04:07:35;;;;;;;5.95;2.80;;;18.10;99.60;;;;;;4197126;28;20254;-78
2021/12/03 04:09:37;;;;;;;5.63;3.03;;;18.00;99.30;;;;;;4197098;28;20631;-78
2021/12/03 04:11:40;;;;;;;7.32;2.95;;;18.00;99.30;;;;;;4197132;28;20265;-78
2021/12/03 04:13:42;;;;;;;7.07;2.88;;;18.00;99.20;;;;;;4196686;28;20276;-78
2021/12/03 04:15:46;;;;;;;8.13;2.97;;;18.10;99.30;;;;;;4192875;28;20277;-78
2021/12/03 04:17:49;;;;;;;7.00;3.10;;;18.00;99.10;;;;;;4193379;28;20594;-78
2021/12/03 04:19:51;;;;;;;6.10;3.20;;;18.00;99.20;;;;;;4194145;28;20212;-78
2021/12/03 04:21:54;;;;;;;6.25;2.75;;;18.00;99.10;;;;;;4194126;28;20636;-78
2021/12/03 04:23:56;;;;;;;7.30;3.38;;;18.00;99.10;;;;;;4194265;28;20227;-78
2021/12/03 04:25:58;;;;;;;7.30;3.30;;;18.00;99.10;;;;;;4194343;28;20273;-79
2021/12/03 04:28:01;;;;;;;7.63;3.33;;;18.00;99.10;;;;;;4194083;28;20302;-79
2021/12/03 04:30:05;;;;;;;8.30;3.05;;;17.90;99.10;;;;;;4194490;28;20558;-78
2021/12/03 04:32:09;;;;;;;5.85;2.75;;;17.90;99.10;;;;;;4195837;28;20219;-79
2021/12/03 04:34:11;;;;;;;8.27;3.33;;;18.00;99.00;;;;;;4196267;28;20223;-78
2021/12/03 04:36:14;;;;;;;7.00;3.28;;;18.00;99.00;;;;;;4196749;28;20223;-78
2021/12/03 04:38:16;;;;;;;8.43;2.95;;;18.00;98.90;;;;;;4195828;28;20219;-78
2021/12/03 04:40:20;;;;;;;8.20;3.30;;;17.90;98.90;;;;;;4196037;28;20734;-78
2021/12/03 04:42:23;;;;;;;8.98;2.95;;;17.90;98.90;;;;;;4195879;28;20215;-78
2021/12/03 04:44:25;;;;;;;10.23;3.50;;;17.90;99.20;;;;;;4196496;28;20216;-78
2021/12/03 04:46:27;;;;;;;8.45;2.95;;;17.90;98.90;;;;;;4195785;28;20219;-78
2021/12/03 04:48:31;;;;;;;8.70;3.35;;;18.00;99.00;;;;;;4196492;28;20214;-78
2021/12/03 04:50:36;;;;;;;9.35;3.35;;;18.00;99.00;;;;;;4195797;28;20235;-78
2021/12/03 04:52:39;;;;;;;6.03;2.75;;;17.90;98.90;;;;;;4195780;28;20218;-79
2021/12/03 04:54:42;;;;;;;7.90;3.08;;;17.90;98.90;;;;;;4195990;28;20219;-78
2021/12/03 04:56:45;;;;;;;7.28;3.45;;;17.90;98.90;;;;;;4195772;28;20227;-79
2021/12/03 04:58:47;;;;;;;8.15;3.42;;;17.90;98.80;;;;;;4194944;28;20611;-79
2021/12/03 05:00:52;;;;;;;7.97;3.15;;;17.90;98.90;;;;;;4195865;28;20219;-78
2021/12/03 05:02:55;;;;;;;8.88;3.38;;;17.90;98.80;;;;;;4195886;28;20249;-78
2021/12/03 05:05:03;;;;;;;9.68;3.70;;;17.90;98.80;;;;;;4195990;28;20215;-78
2021/12/03 05:07:16;;;;;;;8.35;3.20;;;17.90;99.20;;;;;;4195006;28;20235;-78
2021/12/03 05:09:19;;;;;;;7.93;3.33;;;17.90;98.80;;;;;;4194399;28;20672;-78
2021/12/03 05:11:21;;;;;;;8.73;3.55;;;17.80;98.70;;;;;;4195511;28;20260;-78
2021/12/03 05:13:26;;;;;;;7.70;3.22;;;17.80;98.80;;;;;;4194098;28;20268;-78
2021/12/03 05:15:28;;;;;;;7.55;2.90;;;17.90;98.60;;;;;;4195372;28;20544;-78
2021/12/03 05:17:31;;;;;;;7.63;3.22;;;17.80;98.70;;;;;;4194798;28;20623;-78
2021/12/03 05:19:33;;;;;;;6.75;3.20;;;17.80;98.70;;;;;;4195531;28;20218;-78
2021/12/03 05:21:37;;;;;;;7.75;3.33;;;17.80;98.70;;;;;;4195777;28;20260;-78
2021/12/03 05:23:39;;;;;;;7.15;3.05;;;17.80;98.70;;;;;;4195534;28;20264;-78
2021/12/03 05:25:42;;;;;;;7.43;2.75;;;17.80;98.60;;;;;;4195400;28;20257;-78
2021/12/03 05:27:44;;;;;;;8.70;3.30;;;17.80;98.60;;;;;;4195264;28;20683;-78
2021/12/03 05:29:49;;;;;;;6.65;3.33;;;17.80;98.60;;;;;;4194788;28;20276;-78
2021/12/03 05:31:51;;;;;;;8.00;2.80;;;17.80;98.60;;;;;;4195390;28;20219;-78
2021/12/03 05:33:54;;;;;;;6.53;3.05;;;17.80;98.90;;;;;;4195470;28;20222;-78
2021/12/03 05:35:56;;;;;;;10.38;3.60;;;17.80;98.60;;;;;;4195666;28;20214;-80
2021/12/03 05:38:00;;;;;;;7.30;3.20;;;17.80;98.60;;;;;;4195542;28;20211;-79
2021/12/03 05:40:03;;;;;;;7.18;3.13;;;17.80;98.60;;;;;;4195350;28;20211;-80
2021/12/03 05:42:06;;;;;;;7.57;3.60;;;17.70;98.50;;;;;;4193024;28;20215;-80
2021/12/03 05:44:09;;;;;;;6.63;3.45;;;17.70;98.50;;;;;;4195495;28;20218;-80
2021/12/03 05:46:11;;;;;;;9.32;3.10;;;17.80;98.60;;;;;;4195382;28;20215;-80
2021/12/03 05:48:13;;;;;;;4.55;2.83;;;17.70;98.50;;;;;;4194984;28;20247;-80
2021/12/03 05:50:16;;;;;;;6.50;3.00;;;17.70;98.60;;;;;;4194625;28;20219;-79
2021/12/03 05:52:19;;;;;;;6.65;2.70;;;17.70;98.60;;;;;;4178650;28;20625;-79
2021/12/03 05:54:23;;;;;;;8.73;3.50;;;17.60;99.00;;;;;;4178874;28;20631;-80
2021/12/03 05:56:26;;;;;;;5.78;2.97;;;17.60;98.60;;;;;;4178666;28;20215;-80
2021/12/03 05:58:28;;;;;;;5.95;2.92;;;17.60;98.60;;;;;;4178908;28;20270;-80
2021/12/03 06:00:33;;;;;;;7.85;3.00;;;17.60;98.70;;;;;;4178957;28;20750;-80
2021/12/03 06:02:35;;;;;;;6.50;2.95;;;17.60;98.50;;;;;;4178173;28;20964;-80
2021/12/03 06:04:37;;;;;;;8.70;3.10;;;17.70;98.50;;;;;;4176337;28;20323;-80
2021/12/03 06:06:40;;;;;;;7.15;2.90;;;17.70;98.50;;;;;;4175944;28;20208;-80
2021/12/03 06:08:42;;;;;;;9.30;3.35;;;17.70;98.60;;;;;;4177946;28;20240;-79
2021/12/03 06:10:46;;;;;;;8.32;3.33;;;17.70;98.50;;;;;;4178267;28;20270;-80
2021/12/03 06:12:49;;;;;;;7.88;3.03;;;17.80;98.50;;;;;;4177690;28;20624;-80
2021/12/03 06:14:51;;;;;;;5.75;2.90;;;17.80;98.60;;;;;;4179282;28;20262;-80
2021/12/03 06:16:53;;;;;;;6.03;2.70;;;17.80;98.60;;;;;;4168333;28;20208;-80
2021/12/03 06:18:56;;;;;;;5.50;2.72;;;17.90;98.60;;;;;;4177888;28;20203;-80
2021/12/03 06:20:58;;;;;;;7.30;2.88;;;17.90;98.70;;;;;;4172999;28;20216;-80
2021/12/03 06:23:00;;;;;;;7.60;3.20;;;17.90;98.60;;;;;;4178058;28;20641;-80
2021/12/03 06:25:03;;;;;;;8.32;3.35;;;17.90;98.60;;;;;;4178123;28;20212;-80
2021/12/03 06:27:07;;;;;;;6.45;3.55;;;17.90;98.70;;;;;;4178586;28;20940;-80
2021/12/03 06:29:10;;;;;;;6.13;3.20;;;17.90;98.70;;;;;;4177860;28;20239;-80
2021/12/03 06:31:12;;;;;;;7.18;2.60;;;17.90;98.70;;;;;;4178063;28;20212;-80
2021/12/03 06:33:15;;;;;;;6.28;3.13;;;18.00;98.80;;;;;;4177877;28;20246;-79
2021/12/03 06:35:17;;;;;;;8.32;2.75;;;18.00;98.70;;;;;;4178356;28;20718;-79
2021/12/03 06:37:20;;;;;;;6.85;3.13;;;18.00;98.90;;;;;;4178259;28;20223;-79
2021/12/03 06:39:22;;;;;;;6.97;3.10;;;18.00;98.90;;;;;;4176391;28;20549;-79
2021/12/03 06:41:25;;;;;;;8.73;3.08;;;18.00;98.90;;;;;;4177780;28;20617;-79
2021/12/03 06:43:28;;;;;;;7.28;2.80;;;18.00;98.90;;;;;;4178216;28;20664;-79
2021/12/03 06:45:31;;;;;;;6.22;2.60;;;18.00;99.00;;;;;;4178202;28;20258;-80
2021/12/03 06:47:34;;;;;;;6.93;2.90;;;18.10;98.90;;;;;;4177963;28;20269;-79
2021/12/03 06:49:36;;;;;;;7.68;2.88;;;18.10;99.30;;;;;;4177966;28;20209;-79
2021/12/03 06:51:43;;;;;;;9.35;2.85;;;18.10;98.90;;;;;;4189467;28;20231;-80
2021/12/03 06:53:55;;;;;;;6.05;2.78;;;18.10;98.90;;;;;;4194242;28;20211;-79
2021/12/03 06:55:58;;;;;;;10.57;3.30;;;18.10;99.00;;;;;;4192646;28;20667;-80
2021/12/03 06:58:01;;;;;;;6.57;2.60;;;18.10;98.90;;;;;;4193732;28;20617;-79
2021/12/03 07:00:05;;;;;;;6.07;2.80;;;18.10;98.90;;;;;;4194557;28;20554;-79
2021/12/03 07:02:08;;;;;;;6.38;3.00;;;18.20;99.30;;;;;;4194251;28;20264;-79
2021/12/03 07:04:10;;;;;;;5.45;2.70;;;18.20;99.00;;;;;;4194514;28;20261;-79
2021/12/03 07:06:13;;;;;;;10.63;3.35;;;18.20;99.20;;;;;;4194015;28;20219;-80
2021/12/03 07:08:15;;;;;;;8.18;2.70;;;18.10;99.00;;;;;;4193598;28;20276;-80
2021/12/03 07:10:18;;;;;;;4.80;2.95;;;18.20;99.20;;;;;;4193063;28;20216;-79
2021/12/03 07:12:20;;;;;;;7.15;3.00;;;18.20;99.20;;;;;;4193267;28;20211;-80
2021/12/03 07:14:22;;;;;;;5.55;2.65;;;18.20;99.30;;;;;;4193951;28;20224;-80
2021/12/03 07:16:26;;;;;;;6.40;2.78;;;18.20;99.20;;;;;;4193976;28;20215;-79
2021/12/03 07:18:29;;;;;;;5.50;2.70;;;18.20;99.20;;;;;;4194070;28;20257;-79
2021/12/03 07:20:31;;;;;;;6.07;2.78;;;18.20;99.20;;;;;;4194272;28;20222;-80
2021/12/03 07:22:34;;;;;;;6.43;2.63;;;18.20;99.20;;;;;;4196253;28;20215;-80
2021/12/03 07:24:36;;;;;;;6.97;2.53;;;18.20;99.20;;;;;;4196898;28;20308;-79
2021/12/03 07:26:38;;;;;;;10.07;3.38;;;18.30;99.20;;;;;;4196870;28;20675;-79
2021/12/03 07:28:41;;;;;;;8.38;2.58;;;18.30;99.20;;;;;;4197324;28;20288;-79
2021/12/03 07:30:43;;;;;;;6.72;2.53;;;18.30;99.20;;;;;;4196847;28;20219;-79
2021/12/03 07:32:47;;;;;;;5.45;2.58;;;18.30;99.30;;;;;;4196937;28;20215;-79
2021/12/03 07:34:49;;;;;;;5.70;2.50;;;18.30;99.40;;;;;;4197079;28;20215;-80
2021/12/03 07:36:51;;;;;;;6.80;2.60;;;18.30;99.50;;;;;;4196904;28;20208;-79
2021/12/03 07:38:53;;;;;;;6.93;2.60;;;18.30;99.40;;;;;;4196498;28;20207;-79
2021/12/03 07:40:59;;;;;;;6.00;2.53;;;18.30;99.70;;;;;;4197098;28;20207;-80
2021/12/03 07:43:01;;;;;;;5.78;2.45;;;18.30;99.40;;;;;;4196993;28;20607;-79
2021/12/03 07:45:05;;;;;;;6.43;2.63;;;18.40;99.70;;;;;;4197182;28;20635;-80
2021/12/03 07:47:08;;;;;;;5.10;2.50;;;18.30;99.40;;;;;;4196944;28;21730;-79
2021/12/03 07:49:11;;;;;;;7.18;2.85;;;18.30;99.30;;;;;;4196969;28;20231;-79
2021/12/03 07:51:15;;;;;;;5.00;2.50;;;18.40;99.30;;;;;;4196416;28;20238;-79
2021/12/03 07:53:18;;;;;;;13.10;3.75;;;18.40;99.30;;;;;;4194903;28;24481;-79
2021/12/03 07:55:21;;;;;;;26.20;4.45;;;18.00;97.70;;;;;;4195667;28;20276;-78
2021/12/03 07:57:23;;;;;;;12.55;3.13;;;17.90;98.70;;;;;;4188825;28;20219;-79
2021/12/03 07:59:26;;;;;;;11.30;3.45;;;18.00;99.10;;;;;;4188217;28;20215;-80
2021/12/03 08:01:28;;;;;;;11.25;3.30;;;18.10;99.20;;;;;;4193210;28;20285;-79
2021/12/03 08:03:30;;;;;;;9.07;3.08;;;18.20;98.90;;;;;;4192175;28;20659;-79
2021/12/03 08:05:35;;;;;;;9.70;3.22;;;18.30;98.90;;;;;;4191633;28;20215;-78
2021/12/03 08:07:45;;;;;;;6.82;2.70;;;18.40;98.80;;;;;;4193471;28;20288;-80
2021/12/03 08:09:47;;;;;;;8.70;3.22;;;18.40;99.20;;;;;;4194500;28;20230;-79
2021/12/03 08:11:54;;;;;;;6.45;2.65;;;18.40;99.00;;;;;;4194581;28;20249;-78
2021/12/03 08:13:56;;;;;;;8.85;2.70;;;18.50;99.20;;;;;;4196286;28;20211;-80
2021/12/03 08:15:59;;;;;;;7.28;2.90;;;18.50;99.10;;;;;;4196910;28;20218;-79
2021/12/03 08:18:17;;;;;;;9.10;2.78;;;18.60;99.30;;;;;;4195305;28;20223;-81
2021/12/03 08:20:20;;;;;;;7.47;2.40;;;18.60;99.50;;;;;;4194282;28;20285;-80
2021/12/03 08:22:25;;;;;;;5.53;2.47;;;18.70;99.40;;;;;;4195722;28;20211;-79
2021/12/03 08:24:28;;;;;;;7.10;3.00;;;18.70;99.00;;;;;;4191182;28;20535;-79
2021/12/03 08:26:32;;;;;;;12.07;3.13;;;18.70;98.40;;;;;;4191862;28;20224;-78
2021/12/03 08:28:35;;;;;;;9.02;2.40;;;18.80;98.90;;;;;;4194426;28;20207;-78
2021/12/03 08:30:39;;;;;;;6.53;2.83;;;18.80;99.00;;;;;;4193264;28;20284;-79
2021/12/03 08:32:42;;;;;;;7.63;2.83;;;18.90;99.10;;;;;;4190738;28;20269;-78
2021/12/03 08:34:45;;;;;;;8.23;2.70;;;18.90;99.40;;;;;;4196885;28;20257;-80
2021/12/03 08:36:47;;;;;;;11.00;2.60;;;19.00;99.20;;;;;;4194401;28;20216;-79
2021/12/03 08:38:51;;;;;;;7.20;2.30;;;19.10;98.80;;;;;;4193606;28;20252;-81
2021/12/03 08:41:08;;;;;;;6.28;2.42;;;19.10;99.40;;;;;;4194221;28;20215;-80
2021/12/03 08:43:10;;;;;;;5.07;2.45;;;19.10;99.90;;;;;;4194308;28;20600;-80
2021/12/03 08:45:22;;;;;;;6.05;2.45;;;19.10;99.90;;;;;;4192190;28;20215;-79
2021/12/03 08:47:28;;;;;;;4.70;2.05;;;19.20;99.90;;;;;;4194598;28;20222;-80
2021/12/03 08:49:46;;;;;;;4.90;2.00;;;19.30;99.70;;;;;;4194298;28;20284;-80
2021/12/03 08:51:54;;;;;;;6.30;2.50;;;19.40;99.60;;;;;;4195143;28;20243;-78
2021/12/03 08:56:21;;;;;;;6.68;2.60;;;19.50;99.30;;;;;;4193288;28;20203;-79
2021/12/03 08:58:24;;;;;;;7.70;2.42;;;19.40;98.80;;;;;;4195352;28;20219;-78
2021/12/03 09:00:26;;;;;;;6.55;2.40;;;19.60;98.70;;;;;;4192081;28;20215;-80
2021/12/03 09:02:28;;;;;;;6.60;2.50;;;19.70;99.10;;;;;;4192610;28;20266;-78
2021/12/03 09:04:31;;;;;;;4.18;2.15;;;19.70;99.10;;;;;;4191948;28;20215;-78
2021/12/03 09:06:34;;;;;;;8.45;2.75;;;19.70;99.10;;;;;;4194989;28;20717;-78
2021/12/03 09:08:37;;;;;;;7.38;2.60;;;19.80;98.80;;;;;;4194691;28;20672;-79
2021/12/03 09:10:41;;;;;;;6.00;2.60;;;19.90;98.60;;;;;;4193581;28;20261;-78
2021/12/03 09:12:44;;;;;;;8.73;2.80;;;19.90;98.70;;;;;;4194208;28;20265;-79
2021/12/03 09:14:49;;;;;;;14.20;3.05;;;19.90;98.70;;;;;;4193407;28;20652;-77
2021/12/03 09:16:58;;;;;;;8.50;2.75;;;19.90;98.70;;;;;;4190755;28;20214;-78
2021/12/03 09:19:02;;;;;;;7.07;2.80;;;19.90;98.60;;;;;;4191363;28;20272;-79
2021/12/03 09:21:07;;;;;;;7.80;2.90;;;20.10;98.20;;;;;;4191938;28;20729;-79
2021/12/03 09:23:15;;;;;;;6.63;2.63;;;20.10;98.90;;;;;;4195992;28;20264;-77
2021/12/03 09:25:22;;;;;;;7.85;2.80;;;20.10;98.80;;;;;;4196854;28;20280;-77
2021/12/03 09:27:26;;;;;;;5.18;2.60;;;20.20;98.60;;;;;;4196829;28;20223;-76
2021/12/03 09:29:31;;;;;;;6.50;2.50;;;20.20;98.90;;;;;;4194289;28;20243;-77
2021/12/03 09:31:40;;;;;;;7.80;2.58;;;20.30;98.80;;;;;;4197217;28;20280;-80
2021/12/03 09:33:46;;;;;;;6.95;2.67;;;20.30;98.30;;;;;;4194763;28;20219;-78
2021/12/03 09:35:53;;;;;;;6.18;2.88;;;20.30;98.40;;;;;;4196641;28;20210;-78
2021/12/03 09:37:56;;;;;;;7.65;2.70;;;20.30;98.80;;;;;;4197049;28;20206;-78
2021/12/03 09:40:04;;;;;;;7.10;3.00;;;20.30;98.60;;;;;;4196338;28;20311;-77
2021/12/03 09:42:09;;;;;;;8.93;2.90;;;20.40;98.70;;;;;;4195124;28;20207;-78
2021/12/03 09:44:13;;;;;;;6.57;2.85;;;20.50;98.70;;;;;;4195822;28;20264;-81
2021/12/03 09:46:20;;;;;;;4.70;2.80;;;20.60;98.40;;;;;;4194975;28;20218;-80
2021/12/03 09:48:33;;;;;;;8.20;3.30;;;20.60;98.40;;;;;;4192535;28;20230;-80
2021/12/03 09:50:40;;;;;;;21.35;3.15;;;20.60;98.40;;;;;;4194740;28;20261;-84
2021/12/03 09:52:53;;;;;;;10.85;2.67;;;20.60;98.50;;;;;;4196737;28;20630;-81
2021/12/03 09:55:09;;;;;;;7.30;2.75;;;20.70;98.40;;;;;;4197964;28;20740;-81
2021/12/03 09:57:14;;;;;;;8.00;2.83;;;20.70;98.80;;;;;;4194057;28;20207;-80
2021/12/03 10:01:40;;;;;;;5.55;2.83;;;20.80;98.70;;;;;;4186717;28;20207;-79
2021/12/03 10:03:55;;;;;;;6.32;2.70;;;20.90;98.80;;;;;;4176797;28;20215;-79
2021/12/03 10:13:10;;;;;;;6.18;3.28;;;20.80;98.40;;;;;;4183229;28;20243;-82
2021/12/03 10:15:17;;;;;;;4.32;2.67;;;20.90;98.40;;;;;;4194123;28;20237;-78
2021/12/03 10:17:41;;;;;;;5.03;2.85;;;20.90;98.10;;;;;;4194992;28;20235;-78
2021/12/03 10:19:54;;;;;;;5.68;2.47;;;21.00;98.10;;;;;;4193291;28;20207;-79
2021/12/03 10:22:16;;;;;;;4.68;2.65;;;21.00;98.10;;;;;;4192515;28;20963;-78
2021/12/03 10:27:15;;;;;;;5.97;2.60;;;21.00;98.40;;;;;;4183722;28;20287;-78
2021/12/03 10:29:43;;;;;;;7.28;3.08;;;20.90;98.60;;;;;;4193653;28;20231;-82
2021/12/03 10:36:52;;;;;;;5.80;2.95;;;20.90;98.70;;;;;;4186168;28;20203;-79
2021/12/03 10:39:23;;;;;;;5.18;2.30;;;20.90;98.60;;;;;;4194602;28;20615;-80
2021/12/03 10:41:42;;;;;;;4.80;2.60;;;20.80;99.40;;;;;;4194639;28;20241;-80
2021/12/03 10:46:24;;;;;;;4.47;2.42;;;20.80;99.70;;;;;;4191402;28;20207;-80
2021/12/03 10:48:39;;;;;;;6.25;3.00;;;20.80;99.30;;;;;;4195939;28;20685;-79
2021/12/03 10:51:00;;;;;;;15.98;3.83;;;20.70;99.10;;;;;;4192666;28;20238;-77
2021/12/03 10:58:35;;;;;;;6.93;2.80;;;20.80;99.90;;;;;;4197407;28;20207;-78
2021/12/03 11:06:00;;;;;;;6.82;3.45;;;20.90;99.40;;;;;;4195740;28;20272;-79
2021/12/03 11:11:06;;;;;;;7.20;3.15;;;20.90;99.80;;;;;;4195231;28;20207;-81
2021/12/03 11:35:49;;;;;;;6.85;3.00;;;21.10;99.80;;;;;;4198440;28;20613;-79
2021/12/03 13:08:24;;;;;;;6.97;2.90;;;21.50;99.90;;;;;;4129394;28;20616;-76
2021/12/03 13:10:55;;;;;;;6.53;3.08;;;21.50;99.90;;;;;;4174051;28;21196;-76
2021/12/03 13:18:29;;;;;;;13.43;3.88;;;21.50;99.90;;;;;;4264583;27;20900;-76
2021/12/03 14:02:23;;;;;;;9.25;3.40;;;21.80;99.90;;;;;;4209438;27;20252;-81